createdAt,value
2023-04-29T00:00:32.593Z,11.94
2023-04-29T00:05:51.351Z,12.06
2023-04-29T00:11:09.935Z,11.88
2023-04-29T00:16:31.131Z,11.88
2023-04-29T00:21:46.968Z,11.94
2023-04-29T00:27:05.290Z,11.88
2023-04-29T00:32:23.604Z,12
2023-04-29T00:37:42.342Z,11.94
2023-04-29T00:43:00.932Z,11.88
2023-04-29T00:48:19.454Z,11.88
2023-04-29T00:53:38.237Z,11.88
2023-04-29T00:58:56.853Z,11.88
2023-04-29T01:04:15.749Z,11.69
2023-04-29T01:09:36.765Z,11.69
2023-04-29T01:14:55.438Z,11.5
2023-04-29T01:20:13.787Z,11.38
2023-04-29T01:25:31.909Z,11.19
2023-04-29T01:30:50.403Z,11
2023-04-29T01:36:08.911Z,10.88
2023-04-29T01:41:29.677Z,10.94
2023-04-29T01:46:46.120Z,11.06
2023-04-29T01:52:04.812Z,11.12
2023-04-29T01:57:23.249Z,11.25
2023-04-29T02:02:41.946Z,11.44
2023-04-29T02:08:00.608Z,11.38
2023-04-29T02:13:19.373Z,11.25
2023-04-29T02:23:36.546Z,11.44
2023-04-29T02:28:55.324Z,11.44
2023-04-29T02:34:14.072Z,11.38
2023-04-29T02:39:32.512Z,11.38
2023-04-29T02:44:50.785Z,11.5
2023-04-29T02:50:08.973Z,11.38
2023-04-29T02:55:27.210Z,11.5
2023-04-29T03:00:45.796Z,11.31
2023-04-29T03:06:04.299Z,11.06
2023-04-29T03:11:22.517Z,11
2023-04-29T03:16:41.217Z,11
2023-04-29T03:21:59.426Z,10.94
2023-04-29T03:27:17.854Z,10.88
2023-04-29T03:32:35.962Z,10.81
2023-04-29T03:37:54.246Z,10.75
2023-04-29T03:43:13.106Z,10.69
2023-04-29T03:48:33.924Z,10.63
2023-04-29T03:53:50.006Z,10.63
2023-04-29T03:59:08.622Z,10.5
2023-04-29T04:04:28.276Z,10.5
2023-04-29T04:09:46.987Z,10.56
2023-04-29T04:20:12.804Z,10.63
2023-04-29T04:25:31.182Z,10.63
2023-04-29T04:30:49.542Z,10.63
2023-04-29T04:36:08.323Z,10.69
2023-04-29T04:41:26.606Z,10.69
2023-04-29T04:46:47.689Z,10.75
2023-04-29T04:52:03.655Z,10.81
2023-04-29T04:57:21.988Z,10.88
2023-04-29T05:02:40.608Z,10.94
2023-04-29T05:08:01.481Z,11
2023-04-29T05:13:17.473Z,11
2023-04-29T05:18:35.791Z,11
2023-04-29T05:23:54.546Z,11
2023-04-29T05:29:13.130Z,10.75
2023-04-29T05:34:31.460Z,10.88
2023-04-29T05:39:49.865Z,10.94
2023-04-29T05:45:08.214Z,11
2023-04-29T05:50:26.881Z,11.12
2023-04-29T05:55:45.595Z,11.12
2023-04-29T06:01:04.158Z,11
2023-04-29T06:06:22.887Z,11.25
2023-04-29T06:11:41.491Z,11.25
2023-04-29T06:16:59.676Z,11
2023-04-29T06:22:17.867Z,11.12
2023-04-29T06:27:35.994Z,11.19
2023-04-29T06:32:54.958Z,11.19
2023-04-29T06:38:12.800Z,11.19
2023-04-29T06:43:31.472Z,11.25
2023-04-29T06:48:49.713Z,11.38
2023-04-29T06:54:08.176Z,11.44
2023-04-29T06:59:26.539Z,11.56
2023-04-29T07:04:45.322Z,11.69
2023-04-29T07:10:03.482Z,12
2023-04-29T07:15:22.354Z,12.19
2023-04-29T07:20:44.625Z,12.19
2023-04-29T07:26:01.964Z,12.19
2023-04-29T07:31:23.147Z,11.94
2023-04-29T07:41:37.498Z,12.06
2023-04-29T07:46:55.890Z,12.06
2023-04-29T07:52:14.260Z,11.94
2023-04-29T07:57:32.689Z,12
2023-04-29T08:02:51.012Z,11.81
2023-04-29T08:08:09.402Z,11.69
2023-04-29T08:13:27.588Z,11.56
2023-04-29T08:18:46.425Z,11.75
2023-04-29T08:24:05.124Z,11.63
2023-04-29T08:29:23.688Z,11.69
2023-04-29T08:34:41.858Z,11.75
2023-04-29T08:40:00.738Z,11.81
2023-04-29T08:45:19.184Z,12.19
2023-04-29T08:50:38.219Z,12.56
2023-04-29T08:55:56.702Z,12.56
2023-04-29T09:01:14.948Z,12.31
2023-04-29T09:06:33.376Z,12.56
2023-04-29T09:11:52.348Z,13.06
2023-04-29T09:17:10.907Z,13.31
2023-04-29T09:22:29.981Z,13.56
2023-04-29T09:27:50.475Z,13.13
2023-04-29T09:33:06.519Z,13
2023-04-29T09:38:24.904Z,12.69
2023-04-29T09:43:43.018Z,12.5
2023-04-29T09:49:01.779Z,12.81
2023-04-29T09:54:20.849Z,14
2023-04-29T09:59:39.941Z,14.87
2023-04-29T10:04:58.453Z,14.81
2023-04-29T10:10:18.313Z,16.31
2023-04-29T10:15:36.833Z,16.12
2023-04-29T10:20:54.565Z,15
2023-04-29T10:26:12.704Z,14.63
2023-04-29T10:31:30.623Z,14.5
2023-04-29T10:36:48.742Z,14.87
2023-04-29T10:42:07.383Z,15.31
2023-04-29T10:47:25.859Z,15.19
2023-04-29T10:52:44.189Z,15.44
2023-04-29T11:03:07.766Z,17
2023-04-29T11:08:27.742Z,17.94
2023-04-29T11:13:47.958Z,20.19
2023-04-29T11:19:06.839Z,18.94
2023-04-29T11:24:24.075Z,17.12
2023-04-29T11:29:41.196Z,16.69
2023-04-29T11:34:59.084Z,15.75
2023-04-29T11:40:16.951Z,15.38
2023-04-29T11:45:35.512Z,15.31
2023-04-29T11:50:54.080Z,15.63
2023-04-29T11:56:12.934Z,15.56
2023-04-29T12:01:31.351Z,15.88
2023-04-29T12:06:50.285Z,16.56
2023-04-29T12:12:09.229Z,17.06
2023-04-29T12:17:27.538Z,16.5
2023-04-29T12:22:45.750Z,16.87
2023-04-29T12:28:05.045Z,17
2023-04-29T12:33:23.041Z,16.62
2023-04-29T12:38:41.172Z,16.69
2023-04-29T12:43:59.298Z,16.31
2023-04-29T12:49:17.582Z,16.06
2023-04-29T12:54:36.253Z,16.31
2023-04-29T12:59:55.317Z,16.75
2023-04-29T13:05:13.816Z,16.75
2023-04-29T13:10:32.628Z,17.06
2023-04-29T13:15:51.557Z,17.06
2023-04-29T13:21:09.453Z,16.31
2023-04-29T13:26:27.420Z,15.75
2023-04-29T13:31:46.115Z,15.88
2023-04-29T13:37:04.463Z,15.31
2023-04-29T13:42:26.490Z,15.44
2023-04-29T13:47:57.451Z,15.31
2023-04-29T13:53:19.006Z,15.63
2023-04-29T14:03:36.994Z,15.63
2023-04-29T14:08:55.791Z,16.31
2023-04-29T14:14:14.395Z,16.5
2023-04-29T14:19:35.232Z,16.69
2023-04-29T14:24:51.185Z,16.62
2023-04-29T14:30:09.301Z,16.5
2023-04-29T14:35:27.432Z,15.75
2023-04-29T14:40:45.501Z,15.56
2023-04-29T14:46:04.422Z,17.81
2023-04-29T14:51:22.774Z,16.75
2023-04-29T14:56:41.180Z,18.19
2023-04-29T15:01:59.978Z,17.44
2023-04-29T15:07:18.291Z,16.81
2023-04-29T15:12:36.389Z,16
2023-04-29T15:17:54.572Z,15.88
2023-04-29T15:23:13.166Z,15.75
2023-04-29T15:28:31.395Z,16.5
2023-04-29T15:33:49.814Z,16.44
2023-04-29T15:39:08.258Z,16.12
2023-04-29T15:44:26.525Z,15.69
2023-04-29T15:49:45.050Z,15.25
2023-04-29T15:55:03.202Z,15.06
2023-04-29T16:00:24.195Z,14.75
2023-04-29T16:05:40.699Z,14.56
2023-04-29T16:10:58.928Z,14.5
2023-04-29T16:16:17.527Z,14.44
2023-04-29T16:21:36.378Z,14.38
2023-04-29T16:26:55.413Z,14.31
2023-04-29T16:32:13.932Z,14.13
2023-04-29T16:37:32.530Z,14
2023-04-29T16:42:51.409Z,14.06
2023-04-29T16:48:10.357Z,14.13
2023-04-29T16:53:29.235Z,14.06
2023-04-29T16:58:49.071Z,14.19
2023-04-29T17:04:08.118Z,14.25
2023-04-29T17:09:26.736Z,14.06
2023-04-29T17:14:44.970Z,14.13
2023-04-29T17:20:03.565Z,14.13
2023-04-29T17:25:22.390Z,14.13
2023-04-29T17:30:41.035Z,14.06
2023-04-29T17:35:59.616Z,13.94
2023-04-29T17:41:17.911Z,13.88
2023-04-29T17:46:36.450Z,13.69
2023-04-29T17:51:55.068Z,13.62
2023-04-29T17:57:13.713Z,13.5
2023-04-29T18:02:32.302Z,13.44
2023-04-29T18:07:50.864Z,13.31
2023-04-29T18:13:09.397Z,13.31
2023-04-29T18:18:27.206Z,13.31
2023-04-29T18:23:45.679Z,13.25
2023-04-29T18:29:04.264Z,13.19
2023-04-29T18:34:22.405Z,13
2023-04-29T18:39:40.639Z,12.94
2023-04-29T18:44:59.352Z,12.75
2023-04-29T18:50:17.901Z,12.69
2023-04-29T18:55:36.479Z,12.63
2023-04-29T19:00:54.884Z,12.56
2023-04-29T19:06:13.104Z,12.56
2023-04-29T19:11:31.457Z,12.5
2023-04-29T19:16:49.795Z,12.5
2023-04-29T19:22:08.046Z,12.44
2023-04-29T19:27:26.714Z,12.37
2023-04-29T19:32:45.428Z,12.31
2023-04-29T19:38:03.712Z,12.31
2023-04-29T19:43:21.868Z,12.25
2023-04-29T19:48:40.874Z,12.25
2023-04-29T19:53:59.469Z,12.19
2023-04-29T19:59:18.066Z,12.13
2023-04-29T20:04:36.710Z,12.13
2023-04-29T20:09:55.551Z,12.06
2023-04-29T20:15:13.916Z,12.06
2023-04-29T20:20:32.596Z,12
2023-04-29T20:25:50.672Z,12.06
2023-04-29T20:31:08.853Z,12
2023-04-29T20:36:27.186Z,12
2023-04-29T20:46:52.631Z,11.94
2023-04-29T20:52:11.433Z,11.94
2023-04-29T20:57:30.016Z,11.88
2023-04-29T21:02:48.227Z,11.88
2023-04-29T21:08:06.546Z,11.81
2023-04-29T21:13:24.809Z,11.88
2023-04-29T21:18:42.935Z,11.75
2023-04-29T21:24:01.835Z,11.81
2023-04-29T21:29:20.491Z,11.75
2023-04-29T21:34:39.422Z,11.75
2023-04-29T21:39:57.743Z,11.69
2023-04-29T21:45:15.945Z,11.69
2023-04-29T21:50:34.142Z,11.63
2023-04-29T21:55:52.741Z,11.56
2023-04-29T22:01:11.055Z,11.56
2023-04-29T22:06:29.812Z,11.56
2023-04-29T22:11:48.183Z,11.56
2023-04-29T22:17:06.349Z,11.5
2023-04-29T22:22:25.231Z,11.5
2023-04-29T22:27:44.033Z,11.44
2023-04-29T22:33:02.736Z,11.44
2023-04-29T22:38:21.460Z,11.5
2023-04-29T22:43:39.793Z,11.38
2023-04-29T22:48:58.390Z,11.38
2023-04-29T22:54:16.693Z,11.38
2023-04-29T22:59:35.337Z,11.38
2023-04-29T23:04:53.633Z,11.38
2023-04-29T23:10:12.316Z,11.31
2023-04-29T23:15:33.541Z,11.38
2023-04-29T23:20:52.202Z,11.31
2023-04-29T23:26:10.451Z,11.25
2023-04-29T23:31:29.212Z,11.19
2023-04-29T23:36:47.756Z,11.12
2023-04-29T23:42:06.078Z,11.19
2023-04-29T23:47:24.475Z,11.19
2023-04-29T23:52:42.701Z,11.12
2023-04-29T23:58:01.293Z,11.19
